Time;durP1;ratioP1;P1;durP2;ratioP2;P2;SDS_P1;SDS_P2;PMS_P1;PMS_P2;Temp;Humidity;BMP_temperature;BMP_pressure;BME280_temperature;BME280_humidity;BME280_pressure;Samples;Min_cycle;Max_cycle;Signal;HPM_P1;HPM_P2
2021/12/13 00:01:08;;;;;;;9.45;7.72;;;16.20;81.70;;;;;;4141901;28;20409;-59
2021/12/13 00:03:39;;;;;;;13.05;7.97;;;16.20;81.70;;;;;;4142383;28;20046;-59
2021/12/13 00:06:08;;;;;;;9.93;7.53;;;16.20;81.70;;;;;;4118778;28;20050;-60
2021/12/13 00:08:34;;;;;;;7.38;6.65;;;16.20;81.70;;;;;;4141662;28;20045;-59
2021/12/13 00:11:00;;;;;;;7.45;6.38;;;16.20;81.80;;;;;;4141753;28;20046;-59
2021/12/13 00:13:27;;;;;;;7.22;6.53;;;16.20;81.90;;;;;;4141865;28;20068;-60
2021/12/13 00:15:56;;;;;;;8.52;6.28;;;16.20;82.00;;;;;;4133152;28;20379;-59
2021/12/13 00:18:22;;;;;;;6.22;5.65;;;16.10;82.00;;;;;;4141779;28;20056;-59
2021/12/13 00:20:50;;;;;;;8.25;5.57;;;16.10;82.10;;;;;;4141683;28;20045;-59
2021/12/13 00:23:16;;;;;;;6.53;5.93;;;16.10;82.10;;;;;;4142175;28;20057;-59
2021/12/13 00:25:42;;;;;;;6.32;5.72;;;16.10;82.10;;;;;;4125545;28;20054;-60
2021/12/13 00:28:10;;;;;;;6.97;5.82;;;16.20;82.10;;;;;;4138818;28;20053;-59
2021/12/13 00:30:41;;;;;;;7.10;5.75;;;16.10;82.20;;;;;;4141513;28;20046;-62
2021/12/13 00:33:08;;;;;;;;;;;16.10;82.20;;;;;;4126373;28;20062;-62
2021/12/13 00:35:38;;;;;;;5.95;5.35;;;16.10;82.20;;;;;;4135896;28;19984;-62
2021/12/13 00:38:06;;;;;;;6.13;5.53;;;16.10;82.10;;;;;;4145016;28;20081;-62
2021/12/13 00:40:34;;;;;;;5.40;4.95;;;16.00;82.20;;;;;;4143893;28;20046;-63
2021/12/13 00:43:01;;;;;;;6.00;5.43;;;16.00;82.30;;;;;;4145370;28;20041;-63
2021/12/13 00:45:28;;;;;;;6.15;5.55;;;16.00;82.40;;;;;;4144112;28;20045;-63
2021/12/13 00:47:50;;;;;;;6.40;5.70;;;16.00;82.50;;;;;;4143390;28;20057;-63
2021/12/13 00:50:18;;;;;;;5.97;5.38;;;16.10;82.50;;;;;;4145357;28;20062;-63
2021/12/13 00:52:43;;;;;;;5.50;4.97;;;16.10;82.70;;;;;;4144919;28;20050;-62
2021/12/13 00:55:13;;;;;;;8.43;5.88;;;16.00;82.60;;;;;;4144975;28;20073;-62
2021/12/13 00:57:44;;;;;;;7.07;6.20;;;16.00;82.80;;;;;;4144174;28;20054;-62
2021/12/13 01:00:22;;;;;;;7.50;5.82;;;16.00;83.60;;;;;;4144269;28;20064;-63
2021/12/13 01:02:46;;;;;;;7.80;6.60;;;16.00;82.70;;;;;;4144694;28;20408;-62
2021/12/13 01:05:11;;;;;;;8.00;6.45;;;16.00;82.70;;;;;;4144931;28;20065;-62
2021/12/13 01:08:04;;;;;;;11.45;7.07;;;16.00;82.80;;;;;;4145003;28;20104;-63
2021/12/13 01:10:58;;;;;;;8.05;7.00;;;16.00;83.00;;;;;;4122811;28;20052;-63
2021/12/13 01:13:26;;;;;;;10.95;6.97;;;16.00;83.10;;;;;;4144948;28;20056;-63
2021/12/13 01:15:55;;;;;;;8.68;7.70;;;16.00;83.20;;;;;;4144796;28;20058;-63
2021/12/13 01:18:27;;;;;;;8.75;7.28;;;16.00;83.20;;;;;;4144676;28;20425;-63
2021/12/13 01:21:01;;;;;;;9.65;7.80;;;15.90;83.10;;;;;;4129061;28;20054;-63
2021/12/13 01:23:39;;;;;;;9.82;7.72;;;15.90;83.20;;;;;;4144015;28;20100;-63
2021/12/13 01:26:25;;;;;;;10.45;7.60;;;16.00;83.20;;;;;;4143819;28;20574;-63
2021/12/13 01:28:51;;;;;;;8.50;7.60;;;16.00;83.30;;;;;;4144124;28;20136;-63
2021/12/13 01:31:16;;;;;;;11.35;7.88;;;15.90;83.30;;;;;;4129664;28;20062;-63
2021/12/13 01:33:43;;;;;;;11.52;8.10;;;15.90;83.30;;;;;;4127946;28;20054;-63
2021/12/13 01:36:07;;;;;;;11.05;7.60;;;15.90;83.40;;;;;;4142130;28;20132;-63
2021/12/13 01:38:34;;;;;;;11.65;8.30;;;15.90;83.40;;;;;;4142838;28;20132;-63
2021/12/13 01:40:56;;;;;;;10.15;8.15;;;15.90;83.40;;;;;;4127737;28;20101;-63
2021/12/13 01:43:21;;;;;;;13.93;8.85;;;15.90;83.40;;;;;;4128247;28;20046;-63
2021/12/13 01:45:48;;;;;;;16.13;8.95;;;15.90;83.50;;;;;;4136481;28;20065;-63
2021/12/13 01:48:21;;;;;;;12.35;9.10;;;15.90;83.60;;;;;;4128086;28;20050;-63
2021/12/13 01:50:48;;;;;;;15.23;8.80;;;15.90;83.70;;;;;;4127800;28;20050;-63
2021/12/13 01:53:11;;;;;;;14.73;9.05;;;15.90;83.60;;;;;;4127991;28;20481;-63
2021/12/13 01:55:39;;;;;;;17.73;9.27;;;15.90;83.70;;;;;;4139248;28;20049;-63
2021/12/13 01:58:21;;;;;;;14.05;9.23;;;15.90;83.70;;;;;;4128788;28;20073;-63
2021/12/13 02:01:09;;;;;;;14.85;9.85;;;15.80;83.70;;;;;;4144353;28;20486;-63
2021/12/13 02:03:43;;;;;;;16.98;8.82;;;15.90;83.80;;;;;;4143431;28;20046;-65
2021/12/13 02:06:05;;;;;;;14.07;8.48;;;15.90;83.90;;;;;;4143607;28;20054;-63
2021/12/13 02:08:28;;;;;;;18.58;9.90;;;15.90;83.90;;;;;;4143976;28;20132;-60
2021/12/13 02:10:52;;;;;;;13.25;8.38;;;15.80;83.80;;;;;;4144045;28;20061;-60
2021/12/13 02:13:21;;;;;;;13.63;8.60;;;15.80;83.90;;;;;;4144113;28;20065;-60
2021/12/13 02:18:30;;;;;;;13.32;7.88;;;15.80;84.00;;;;;;4143310;28;20049;-63
2021/12/13 02:21:02;;;;;;;10.43;8.02;;;15.80;84.00;;;;;;4129136;28;20050;-63
2021/12/13 02:23:26;;;;;;;;;;;15.80;84.00;;;;;;4127329;28;20047;-64
2021/12/13 02:25:52;;;;;;;8.15;6.15;;;15.80;84.00;;;;;;4143273;28;20332;-65
2021/12/13 02:28:18;;;;;;;10.80;6.43;;;15.80;83.90;;;;;;4140208;28;20096;-64
2021/12/13 02:30:45;;;;;;;10.55;6.72;;;15.80;84.00;;;;;;4127587;28;20050;-63
2021/12/13 02:33:11;;;;;;;11.70;7.00;;;15.70;84.00;;;;;;4127017;28;20072;-61
2021/12/13 02:35:37;;;;;;;10.60;8.10;;;15.80;84.20;;;;;;4142491;28;20053;-63
2021/12/13 02:38:00;;;;;;;9.38;7.10;;;15.70;84.20;;;;;;4142105;28;20136;-64
2021/12/13 02:40:23;;;;;;;12.13;7.65;;;15.80;84.30;;;;;;4143346;28;20108;-63
2021/12/13 02:42:47;;;;;;;8.35;7.05;;;15.70;84.30;;;;;;4143496;28;20049;-63
2021/12/13 02:45:15;;;;;;;8.68;7.50;;;15.80;85.20;;;;;;4143285;28;20050;-63
2021/12/13 02:47:41;;;;;;;12.00;7.43;;;15.70;84.40;;;;;;4142857;28;20054;-62
2021/12/13 02:50:10;;;;;;;10.55;8.18;;;15.70;84.30;;;;;;4143319;28;20078;-65
2021/12/13 02:52:32;;;;;;;9.27;7.80;;;15.70;84.40;;;;;;4143448;28;20065;-63
2021/12/13 02:54:58;;;;;;;10.40;7.65;;;15.70;84.30;;;;;;4139657;28;20132;-63
2021/12/13 02:57:26;;;;;;;10.20;7.70;;;15.70;84.40;;;;;;4143320;28;20121;-63
2021/12/13 02:59:52;;;;;;;10.45;8.40;;;15.70;84.40;;;;;;4142495;28;20127;-63
2021/12/13 03:02:22;;;;;;;11.40;8.70;;;15.70;84.40;;;;;;4143010;28;20046;-63
2021/12/13 03:04:47;;;;;;;12.65;8.80;;;15.70;84.50;;;;;;4142854;28;20444;-63
2021/12/13 03:07:16;;;;;;;12.88;9.10;;;15.70;84.50;;;;;;4142879;28;20080;-64
2021/12/13 03:09:40;;;;;;;12.57;9.07;;;15.70;84.80;;;;;;4142135;28;20815;-63
2021/12/13 03:12:05;;;;;;;12.65;9.00;;;15.70;84.50;;;;;;4142304;28;20164;-63
2021/12/13 03:14:31;;;;;;;13.73;8.95;;;15.70;84.50;;;;;;4142392;28;20508;-63
2021/12/13 03:16:59;;;;;;;14.35;9.02;;;15.70;84.60;;;;;;4127532;28;20055;-65
2021/12/13 03:19:31;;;;;;;16.50;10.48;;;15.70;84.60;;;;;;4142882;28;20053;-65
2021/12/13 03:22:29;;;;;;;16.23;10.55;;;15.70;84.60;;;;;;4142619;28;20461;-63
2021/12/13 03:25:16;;;;;;;18.85;10.25;;;15.70;84.70;;;;;;4141964;28;20069;-62
2021/12/13 03:27:57;;;;;;;17.23;10.77;;;15.70;84.70;;;;;;4130094;28;20553;-63
2021/12/13 03:30:25;;;;;;;14.30;9.95;;;15.70;84.60;;;;;;4141223;28;20054;-63
2021/12/13 03:32:54;;;;;;;18.67;10.15;;;15.70;84.60;;;;;;4127427;28;20050;-62
2021/12/13 03:35:20;;;;;;;19.38;11.00;;;15.70;84.70;;;;;;4142613;28;20046;-62
2021/12/13 03:37:44;;;;;;;12.38;8.10;;;15.60;84.70;;;;;;4141559;28;20136;-63
2021/12/13 03:40:12;;;;;;;14.05;9.00;;;15.70;84.70;;;;;;4142914;28;20525;-64
2021/12/13 03:42:42;;;;;;;15.70;9.57;;;15.70;84.70;;;;;;4142289;28;20064;-63
2021/12/13 03:45:12;;;;;;;18.58;10.35;;;15.60;84.80;;;;;;4125973;28;20402;-62
2021/12/13 03:47:39;;;;;;;18.52;9.77;;;15.60;84.70;;;;;;4129984;28;20527;-63
2021/12/13 03:50:08;;;;;;;13.38;8.18;;;15.60;84.80;;;;;;4133827;28;20050;-63
2021/12/13 03:52:32;;;;;;;17.42;9.38;;;15.60;84.70;;;;;;4142207;28;20406;-63
2021/12/13 03:54:59;;;;;;;16.13;9.73;;;15.60;84.80;;;;;;4140957;28;20140;-62
2021/12/13 03:57:21;;;;;;;14.48;8.32;;;15.60;84.80;;;;;;4141963;28;20104;-63
2021/12/13 03:59:44;;;;;;;14.55;8.73;;;15.60;84.80;;;;;;4140525;28;20402;-63
2021/12/13 04:02:10;;;;;;;14.43;8.82;;;15.60;84.80;;;;;;4142718;28;20050;-63
2021/12/13 04:04:39;;;;;;;13.10;9.15;;;15.60;84.90;;;;;;4142006;28;20046;-63
2021/12/13 04:07:07;;;;;;;12.77;7.63;;;15.60;84.90;;;;;;4142180;28;20472;-63
2021/12/13 04:09:30;;;;;;;15.30;8.38;;;15.60;85.20;;;;;;4141835;28;20501;-60
2021/12/13 04:11:54;;;;;;;15.20;8.05;;;15.60;84.90;;;;;;4141360;28;20121;-60
2021/12/13 04:14:25;;;;;;;12.93;7.80;;;15.60;85.00;;;;;;4142061;28;20049;-60
2021/12/13 04:17:03;;;;;;;20.30;8.15;;;15.60;85.00;;;;;;4134127;28;20046;-59
2021/12/13 04:19:24;;;;;;;13.45;8.00;;;15.60;84.90;;;;;;4125666;28;20054;-60
2021/12/13 04:21:52;;;;;;;15.27;7.65;;;15.60;84.90;;;;;;4125685;28;20065;-59
2021/12/13 04:24:18;;;;;;;14.30;7.32;;;15.60;85.00;;;;;;4129611;28;20049;-59
2021/12/13 04:26:44;;;;;;;14.77;7.00;;;15.50;84.90;;;;;;4141880;28;20137;-62
2021/12/13 04:29:14;;;;;;;14.70;6.60;;;15.60;85.00;;;;;;4141955;28;20058;-62
2021/12/13 04:31:37;;;;;;;12.35;6.97;;;15.50;85.00;;;;;;4141544;28;20049;-62
2021/12/13 04:34:02;;;;;;;10.05;6.13;;;15.60;85.00;;;;;;4127056;28;20487;-62
2021/12/13 04:36:28;;;;;;;12.85;6.30;;;15.60;85.00;;;;;;4127859;28;20142;-62
2021/12/13 04:38:58;;;;;;;11.13;5.60;;;15.60;85.90;;;;;;4141389;28;20504;-62
2021/12/13 04:41:30;;;;;;;12.35;5.43;;;15.50;85.00;;;;;;4140474;28;20080;-62
2021/12/13 04:43:57;;;;;;;10.90;5.60;;;15.60;85.00;;;;;;4140762;28;20050;-62
2021/12/13 04:46:21;;;;;;;9.25;5.55;;;15.60;85.10;;;;;;4140662;28;20041;-64
2021/12/13 04:48:47;;;;;;;13.10;5.45;;;15.50;85.00;;;;;;4140705;28;20133;-62
2021/12/13 04:51:12;;;;;;;9.50;4.80;;;15.50;85.00;;;;;;4138395;28;20050;-63
2021/12/13 04:53:37;;;;;;;8.02;4.25;;;15.50;85.90;;;;;;4125529;28;20117;-62
2021/12/13 04:56:04;;;;;;;11.20;4.70;;;15.50;85.00;;;;;;4125092;28;20058;-62
2021/12/13 04:58:27;;;;;;;7.07;3.70;;;15.60;85.10;;;;;;4125239;28;20078;-62
2021/12/13 05:00:57;;;;;;;5.65;3.72;;;15.50;85.90;;;;;;4128958;28;20213;-62
2021/12/13 05:03:21;;;;;;;8.35;4.22;;;15.50;85.00;;;;;;4141865;28;20049;-62
2021/12/13 05:05:45;;;;;;;10.15;3.92;;;15.50;85.00;;;;;;4141171;28;20045;-62
2021/12/13 05:08:10;;;;;;;3.72;3.28;;;15.50;85.00;;;;;;4127331;28;20129;-62
2021/12/13 05:10:33;;;;;;;5.60;3.42;;;15.50;85.00;;;;;;4140687;28;20068;-63
2021/12/13 05:13:04;;;;;;;6.00;2.78;;;15.50;85.00;;;;;;4141660;28;20136;-63
2021/12/13 05:15:27;;;;;;;7.40;3.42;;;15.50;85.00;;;;;;4141390;28;20069;-63
2021/12/13 05:17:50;;;;;;;4.53;2.70;;;15.50;85.00;;;;;;4141699;28;20501;-63
2021/12/13 05:20:17;;;;;;;4.60;2.40;;;15.50;85.00;;;;;;4141674;28;20472;-63
2021/12/13 05:22:44;;;;;;;6.18;2.92;;;15.50;85.00;;;;;;4126857;28;20133;-63
2021/12/13 05:25:07;;;;;;;7.85;3.40;;;15.50;85.00;;;;;;4127780;28;20042;-63
2021/12/13 05:27:32;;;;;;;8.20;3.20;;;15.50;85.00;;;;;;4128350;28;20046;-63
2021/12/13 05:30:08;;;;;;;9.48;3.67;;;15.50;85.10;;;;;;4128215;28;20054;-63
2021/12/13 05:32:35;;;;;;;6.18;3.20;;;15.50;85.00;;;;;;4128346;28;20141;-63
2021/12/13 05:35:01;;;;;;;8.35;3.85;;;15.50;85.00;;;;;;4128222;28;20113;-63
2021/12/13 05:37:24;;;;;;;8.27;3.53;;;15.50;85.00;;;;;;4127983;28;20137;-62
2021/12/13 05:40:01;;;;;;;8.35;3.75;;;15.50;85.00;;;;;;4139109;28;20467;-63
2021/12/13 05:42:34;;;;;;;6.78;3.75;;;15.50;85.00;;;;;;4128189;28;20570;-63
2021/12/13 05:44:57;;;;;;;9.23;4.00;;;15.50;85.00;;;;;;4127619;28;20133;-63
2021/12/13 05:47:23;;;;;;;7.63;3.35;;;15.50;85.10;;;;;;4128525;28;20494;-63
2021/12/13 05:49:46;;;;;;;8.85;3.63;;;15.50;85.10;;;;;;4127638;28;20042;-63
2021/12/13 05:52:10;;;;;;;7.25;3.85;;;15.50;85.10;;;;;;4143020;28;20048;-63
2021/12/13 05:54:34;;;;;;;8.88;4.07;;;15.50;84.90;;;;;;4144004;28;20560;-63
2021/12/13 05:57:00;;;;;;;7.78;4.13;;;15.60;84.60;;;;;;4132193;28;20057;-63
2021/12/13 05:59:25;;;;;;;6.38;3.28;;;15.70;84.30;;;;;;4141619;28;20060;-63
2021/12/13 06:02:08;;;;;;;5.97;3.40;;;15.80;84.00;;;;;;4144238;28;20054;-63
2021/12/13 06:04:40;;;;;;;6.65;4.25;;;15.80;83.80;;;;;;4142977;28;20125;-62
2021/12/13 06:07:11;;;;;;;8.35;3.65;;;15.80;83.50;;;;;;4143876;28;20387;-63
2021/12/13 06:09:45;;;;;;;6.43;3.65;;;15.90;83.40;;;;;;4143983;28;20486;-63
2021/12/13 06:12:10;;;;;;;8.23;3.90;;;15.90;83.30;;;;;;4142990;28;20045;-60
2021/12/13 06:14:33;;;;;;;5.90;3.83;;;15.90;83.20;;;;;;4127539;28;20481;-60
2021/12/13 06:17:07;;;;;;;7.22;3.35;;;15.90;83.10;;;;;;4127789;28;20038;-59
2021/12/13 06:19:33;;;;;;;6.72;3.97;;;15.90;83.10;;;;;;4127405;28;20459;-60
2021/12/13 06:22:04;;;;;;;6.30;4.38;;;15.90;83.10;;;;;;4139319;28;20058;-60
2021/12/13 06:24:30;;;;;;;10.50;4.32;;;15.90;83.10;;;;;;4143868;28;20065;-60
2021/12/13 06:27:02;;;;;;;9.93;4.35;;;15.90;83.10;;;;;;4143440;28;20112;-61
2021/12/13 06:29:25;;;;;;;;;;;15.90;83.40;;;;;;4137836;28;20054;-63
2021/12/13 06:31:47;;;;;;;8.68;4.70;;;15.80;83.00;;;;;;4127435;28;19933;-63
2021/12/13 06:34:13;;;;;;;8.45;4.30;;;15.80;83.10;;;;;;4126795;28;20053;-63
2021/12/13 06:36:38;;;;;;;7.10;4.97;;;15.80;83.10;;;;;;4127381;28;20054;-63
2021/12/13 06:39:04;;;;;;;8.23;4.60;;;15.80;83.20;;;;;;4127282;28;20050;-63
2021/12/13 06:41:38;;;;;;;7.15;5.43;;;15.80;83.30;;;;;;4127965;28;20050;-63
2021/12/13 06:44:03;;;;;;;6.93;5.00;;;15.80;83.30;;;;;;4126751;28;20046;-63
2021/12/13 06:46:36;;;;;;;8.63;4.68;;;15.70;83.30;;;;;;4138745;28;20060;-63
2021/12/13 06:49:01;;;;;;;8.38;4.35;;;15.70;83.40;;;;;;4142934;28;20062;-63
2021/12/13 06:51:43;;;;;;;9.05;4.97;;;15.70;83.40;;;;;;4143056;28;20053;-63
2021/12/13 06:54:09;;;;;;;7.90;4.57;;;15.70;83.40;;;;;;4128465;28;20474;-63
2021/12/13 06:56:33;;;;;;;6.00;4.50;;;15.60;83.50;;;;;;4126644;28;20053;-63
2021/12/13 06:58:58;;;;;;;7.93;5.38;;;15.60;83.60;;;;;;4127127;28;20445;-59
2021/12/13 07:01:21;;;;;;;8.38;4.53;;;15.60;84.50;;;;;;4137464;28;20048;-60
2021/12/13 07:03:53;;;;;;;7.35;5.18;;;15.60;83.80;;;;;;4141919;28;20445;-59
2021/12/13 07:06:19;;;;;;;9.55;5.53;;;15.60;83.90;;;;;;4142658;28;20049;-60
2021/12/13 07:08:42;;;;;;;7.20;5.80;;;15.60;84.00;;;;;;4143279;28;20050;-59
2021/12/13 07:11:07;;;;;;;11.05;5.75;;;15.50;84.00;;;;;;4142355;28;20058;-59
2021/12/13 07:13:32;;;;;;;8.38;5.85;;;15.50;84.20;;;;;;4143050;28;20069;-59
2021/12/13 07:16:01;;;;;;;7.68;5.63;;;15.60;84.50;;;;;;4142192;28;20493;-60
2021/12/13 07:18:29;;;;;;;9.05;5.63;;;15.60;84.20;;;;;;4138394;28;20513;-59
2021/12/13 07:20:58;;;;;;;7.10;5.95;;;15.70;84.00;;;;;;4126833;28;20473;-59
2021/12/13 07:23:21;;;;;;;9.55;5.30;;;15.80;83.70;;;;;;4131803;28;20100;-59
2021/12/13 07:25:47;;;;;;;10.27;5.88;;;15.90;83.80;;;;;;4141973;28;20060;-60
2021/12/13 07:28:10;;;;;;;8.82;5.90;;;15.90;83.60;;;;;;4141059;28;20046;-59
2021/12/13 07:30:33;;;;;;;8.48;5.20;;;15.90;83.40;;;;;;4126432;28;20418;-59
2021/12/13 07:32:58;;;;;;;8.07;6.13;;;16.00;83.30;;;;;;4124052;28;20522;-59
2021/12/13 07:35:25;;;;;;;7.72;5.68;;;16.00;83.20;;;;;;4127302;28;20046;-59
2021/12/13 07:37:51;;;;;;;8.27;5.00;;;16.00;83.10;;;;;;4138843;28;20103;-59
2021/12/13 07:40:20;;;;;;;13.57;5.68;;;16.00;83.00;;;;;;4141729;28;20077;-60
2021/12/13 07:42:56;;;;;;;8.88;5.88;;;16.00;83.00;;;;;;4131242;28;20089;-59
2021/12/13 07:45:26;;;;;;;13.38;6.35;;;15.90;83.00;;;;;;4140897;28;20133;-59
2021/12/13 07:47:50;;;;;;;8.77;5.20;;;15.90;83.00;;;;;;4142298;28;20054;-59
2021/12/13 07:50:13;;;;;;;8.95;6.82;;;15.90;83.00;;;;;;4142519;28;20054;-59
2021/12/13 07:52:40;;;;;;;10.98;6.72;;;15.90;83.10;;;;;;4142477;28;20046;-59
2021/12/13 07:55:14;;;;;;;8.18;6.40;;;15.90;84.00;;;;;;4141883;28;20472;-59
2021/12/13 07:57:37;;;;;;;7.95;5.63;;;15.90;83.10;;;;;;4142474;28;20442;-59
2021/12/13 08:00:10;;;;;;;8.18;5.82;;;15.90;83.20;;;;;;4134042;28;20053;-60
2021/12/13 08:02:36;;;;;;;9.60;6.75;;;15.80;83.30;;;;;;4141920;28;20481;-59
2021/12/13 08:05:01;;;;;;;9.85;6.72;;;15.80;83.30;;;;;;4142057;28;20383;-59
2021/12/13 08:07:27;;;;;;;11.30;6.85;;;15.80;83.20;;;;;;4142054;28;20065;-59
2021/12/13 08:09:55;;;;;;;8.13;6.90;;;15.80;83.30;;;;;;4141432;28;20070;-62
2021/12/13 08:12:20;;;;;;;7.82;6.53;;;15.80;83.40;;;;;;4125009;28;20076;-61
2021/12/13 08:14:44;;;;;;;9.32;7.57;;;15.70;83.40;;;;;;4139289;28;20060;-59
2021/12/13 08:17:15;;;;;;;10.85;7.28;;;15.70;83.40;;;;;;4139942;28;20062;-61
2021/12/13 08:19:38;;;;;;;9.68;7.38;;;15.70;83.50;;;;;;4139377;28;20049;-61
2021/12/13 08:22:03;;;;;;;8.70;6.43;;;15.70;83.50;;;;;;4139322;28;20508;-59
2021/12/13 08:24:31;;;;;;;11.45;7.85;;;15.70;83.60;;;;;;4139521;28;20050;-59
2021/12/13 08:27:02;;;;;;;9.52;7.43;;;15.60;83.60;;;;;;4139220;28;20877;-59
2021/12/13 08:29:27;;;;;;;;;;;15.60;84.40;;;;;;4138626;28;20058;-59
2021/12/13 08:31:54;;;;;;;14.07;7.95;;;15.60;83.60;;;;;;4138828;28;19930;-59
2021/12/13 08:34:27;;;;;;;14.70;8.95;;;15.60;83.90;;;;;;4139011;28;20049;-59
2021/12/13 08:36:51;;;;;;;11.52;9.65;;;15.60;83.90;;;;;;4138329;28;20057;-60
2021/12/13 08:39:16;;;;;;;12.40;8.98;;;15.50;83.90;;;;;;4139395;28;20049;-59
2021/12/13 08:41:41;;;;;;;9.85;8.52;;;15.50;84.00;;;;;;4139253;28;20049;-59
2021/12/13 08:44:14;;;;;;;17.23;9.75;;;15.50;84.00;;;;;;4114246;28;20053;-59
2021/12/13 08:46:43;;;;;;;10.18;8.73;;;15.50;84.10;;;;;;4138659;28;20042;-59
2021/12/13 08:49:23;;;;;;;10.52;8.98;;;15.50;84.20;;;;;;4138496;28;20361;-59
2021/12/13 08:52:01;;;;;;;12.02;9.40;;;15.50;84.30;;;;;;4138431;28;20064;-59
2021/12/13 08:54:36;;;;;;;12.88;9.52;;;15.50;84.30;;;;;;4140027;28;20143;-59
2021/12/13 08:57:00;;;;;;;11.82;10.15;;;15.40;84.40;;;;;;4139443;28;20058;-59
2021/12/13 08:59:26;;;;;;;13.60;10.00;;;15.40;84.50;;;;;;4142308;28;20050;-59
2021/12/13 09:01:52;;;;;;;15.38;10.23;;;15.40;84.50;;;;;;4142858;28;20100;-59
2021/12/13 09:04:26;;;;;;;14.43;10.75;;;15.40;84.50;;;;;;4127146;28;20854;-59
2021/12/13 09:06:55;;;;;;;16.85;11.27;;;15.40;84.60;;;;;;4141738;28;20147;-60
2021/12/13 09:09:19;;;;;;;14.55;10.88;;;15.30;84.60;;;;;;4141615;28;20049;-59
2021/12/13 09:11:46;;;;;;;16.40;11.52;;;15.40;84.70;;;;;;4141632;28;20046;-59
2021/12/13 09:14:18;;;;;;;15.82;11.52;;;15.30;84.70;;;;;;4142242;28;20485;-60
2021/12/13 09:16:50;;;;;;;13.07;10.90;;;15.30;85.70;;;;;;4142029;28;20429;-59
2021/12/13 09:19:17;;;;;;;14.20;11.40;;;15.30;84.80;;;;;;4141315;28;20062;-60
2021/12/13 09:21:52;;;;;;;16.10;11.20;;;15.30;84.80;;;;;;4141596;28;20058;-59
2021/12/13 09:24:24;;;;;;;15.55;11.25;;;15.30;84.80;;;;;;4127071;28;20078;-59
2021/12/13 09:26:46;;;;;;;14.95;12.18;;;15.30;85.10;;;;;;4141724;28;20518;-59
2021/12/13 09:29:09;;;;;;;16.40;12.75;;;15.30;85.20;;;;;;4141824;28;20838;-59
2021/12/13 09:31:34;;;;;;;18.35;13.45;;;15.30;85.20;;;;;;4142447;28;20077;-60
2021/12/13 09:33:59;;;;;;;20.45;13.88;;;15.30;85.60;;;;;;4142290;28;20054;-59
2021/12/13 09:36:26;;;;;;;16.63;12.85;;;15.30;85.10;;;;;;4141101;28;20103;-59
2021/12/13 09:38:58;;;;;;;16.10;13.45;;;15.30;85.00;;;;;;4141364;28;20057;-60
2021/12/13 09:41:35;;;;;;;17.55;14.07;;;15.30;85.00;;;;;;4141515;28;20053;-59
2021/12/13 09:44:01;;;;;;;16.92;13.13;;;15.30;85.10;;;;;;4141389;28;20046;-59
2021/12/13 09:46:37;;;;;;;20.45;13.77;;;15.30;85.10;;;;;;4140851;28;20054;-59
2021/12/13 09:49:04;;;;;;;20.83;14.05;;;15.30;85.20;;;;;;4141425;28;20056;-59
2021/12/13 09:51:30;;;;;;;19.42;13.20;;;15.20;85.10;;;;;;4141239;28;20054;-59
2021/12/13 09:53:59;;;;;;;20.90;13.98;;;15.20;85.10;;;;;;4141374;28;20551;-62
2021/12/13 09:56:26;;;;;;;16.42;13.40;;;15.20;85.20;;;;;;4142082;28;20482;-63
2021/12/13 09:58:51;;;;;;;20.08;13.90;;;15.20;86.10;;;;;;4141592;28;24196;-62
2021/12/13 10:01:17;;;;;;;20.70;13.65;;;15.20;85.30;;;;;;4141549;28;20061;-63
2021/12/13 10:03:48;;;;;;;18.92;13.82;;;15.20;85.20;;;;;;4140963;28;20061;-62
2021/12/13 10:06:12;;;;;;;15.38;12.32;;;15.20;85.20;;;;;;4140433;28;20054;-60
2021/12/13 10:08:41;;;;;;;19.73;13.02;;;15.20;85.30;;;;;;4140270;28;20449;-59
2021/12/13 10:11:08;;;;;;;16.08;12.38;;;15.20;85.30;;;;;;4141349;28;20524;-60
2021/12/13 10:13:33;;;;;;;19.60;12.88;;;15.20;85.30;;;;;;4139637;28;20042;-59
2021/12/13 10:15:59;;;;;;;15.63;11.98;;;15.20;85.40;;;;;;4141084;28;20048;-59
2021/12/13 10:18:25;;;;;;;16.55;12.93;;;15.20;85.40;;;;;;4125185;28;20541;-59
2021/12/13 10:20:51;;;;;;;17.52;11.77;;;15.20;85.30;;;;;;4139606;28;20136;-59
2021/12/13 10:23:17;;;;;;;16.92;11.73;;;15.20;85.50;;;;;;4141059;28;20061;-59
2021/12/13 10:25:44;;;;;;;13.88;10.20;;;15.20;85.60;;;;;;4125510;28;20050;-60
2021/12/13 10:28:11;;;;;;;16.40;11.20;;;15.20;85.50;;;;;;4140550;28;20469;-60
2021/12/13 10:30:39;;;;;;;16.33;10.48;;;15.20;85.40;;;;;;4139983;28;20141;-60
2021/12/13 10:33:02;;;;;;;16.52;12.25;;;15.20;85.30;;;;;;4140075;28;20056;-59
2021/12/13 10:35:30;;;;;;;19.52;11.68;;;15.20;85.20;;;;;;4141272;28;20042;-58
2021/12/13 10:37:56;;;;;;;20.48;11.43;;;15.20;86.10;;;;;;4139662;28;20046;-61
2021/12/13 10:40:23;;;;;;;14.95;10.93;;;15.20;85.20;;;;;;4140808;28;20050;-61
2021/12/13 10:42:49;;;;;;;15.50;8.82;;;15.20;85.10;;;;;;4140549;28;20077;-61
2021/12/13 10:45:17;;;;;;;13.70;9.73;;;15.20;85.10;;;;;;4140390;28;20530;-62
2021/12/13 10:47:43;;;;;;;15.05;10.20;;;15.20;85.10;;;;;;4140453;28;20046;-62
2021/12/13 10:50:08;;;;;;;16.67;10.20;;;15.20;85.00;;;;;;4140838;28;20052;-62
2021/12/13 10:52:34;;;;;;;14.82;9.70;;;15.20;84.90;;;;;;4141193;28;20045;-63
2021/12/13 10:54:59;;;;;;;11.43;7.07;;;15.20;84.70;;;;;;4118728;28;20145;-62
2021/12/13 10:57:26;;;;;;;12.73;9.35;;;15.20;84.60;;;;;;4141213;28;20141;-62
2021/12/13 10:59:49;;;;;;;13.98;7.63;;;15.20;84.50;;;;;;4140654;28;20054;-62
2021/12/13 11:02:16;;;;;;;12.02;6.13;;;15.20;84.30;;;;;;4140713;28;20073;-65
2021/12/13 11:04:44;;;;;;;13.57;9.43;;;15.20;84.20;;;;;;4139502;28;20081;-64
2021/12/13 11:07:09;;;;;;;12.27;9.23;;;15.20;84.10;;;;;;4124234;28;20054;-63
2021/12/13 11:09:32;;;;;;;12.63;8.45;;;15.20;84.90;;;;;;4140693;28;20069;-63
2021/12/13 11:11:57;;;;;;;13.70;9.63;;;15.20;83.90;;;;;;4140077;28;20049;-62
2021/12/13 11:14:22;;;;;;;9.23;7.15;;;15.20;83.80;;;;;;4139350;28;20061;-62
2021/12/13 11:16:52;;;;;;;13.60;8.35;;;15.20;83.70;;;;;;4139940;28;20056;-63
2021/12/13 11:19:20;;;;;;;12.48;8.50;;;15.30;83.60;;;;;;4139638;28;20058;-63
2021/12/13 11:21:44;;;;;;;20.73;8.40;;;15.40;83.10;;;;;;4139968;28;20541;-59
2021/12/13 11:24:09;;;;;;;10.93;8.02;;;15.50;82.40;;;;;;4136746;28;20131;-59
2021/12/13 11:26:35;;;;;;;13.40;9.13;;;15.60;81.90;;;;;;4139196;28;20054;-59
2021/12/13 11:28:58;;;;;;;10.88;7.93;;;15.70;81.40;;;;;;4138553;28;20046;-60
2021/12/13 11:32:00;;;;;;;12.00;8.90;;;15.80;81.00;;;;;;4139904;28;20133;-59
2021/12/13 11:34:52;;;;;;;13.20;8.93;;;15.80;80.70;;;;;;4139754;28;20396;-59
2021/12/13 11:37:48;;;;;;;15.30;8.65;;;15.90;80.30;;;;;;4139747;28;20061;-62
2021/12/13 11:40:27;;;;;;;10.52;8.40;;;15.90;80.30;;;;;;4121110;28;21428;-64
2021/12/13 11:43:33;;;;;;;11.15;7.85;;;15.80;80.10;;;;;;4139848;28;20569;-62
2021/12/13 11:46:24;;;;;;;11.50;8.45;;;15.80;80.00;;;;;;4139481;28;20508;-61
2021/12/13 11:49:12;;;;;;;14.60;9.68;;;15.80;79.90;;;;;;4139627;28;20478;-62
2021/12/13 11:52:08;;;;;;;10.23;6.28;;;15.80;79.90;;;;;;4139586;28;20062;-62
2021/12/13 11:55:04;;;;;;;9.77;6.15;;;15.80;80.00;;;;;;4139228;28;20065;-62
2021/12/13 11:58:09;;;;;;;12.50;9.48;;;15.70;80.10;;;;;;4139218;28;20069;-61
2021/12/13 12:01:29;;;;;;;14.68;9.20;;;15.70;80.10;;;;;;4139078;28;20486;-62
2021/12/13 12:04:30;;;;;;;13.55;5.65;;;15.60;80.10;;;;;;4104582;28;20057;-61
2021/12/13 12:07:33;;;;;;;11.52;7.40;;;15.60;80.20;;;;;;4139593;28;20050;-62
2021/12/13 12:10:18;;;;;;;14.65;8.50;;;15.60;80.30;;;;;;4139186;28;20081;-62
2021/12/13 12:13:03;;;;;;;12.07;8.63;;;15.50;80.30;;;;;;4138559;28;20073;-63
2021/12/13 12:15:27;;;;;;;13.88;8.68;;;15.50;80.50;;;;;;4139020;28;20414;-63
2021/12/13 12:17:51;;;;;;;14.13;10.32;;;15.50;81.40;;;;;;4139390;28;20136;-60
2021/12/13 12:20:16;;;;;;;12.85;9.25;;;15.50;84.20;;;;;;4139890;28;20128;-60
2021/12/13 12:22:50;;;;;;;15.10;8.77;;;15.50;84.00;;;;;;4138697;28;20057;-61
2021/12/13 12:25:13;;;;;;;17.92;10.00;;;15.50;84.00;;;;;;4139567;28;20045;-60
2021/12/13 12:27:37;;;;;;;15.32;9.25;;;15.50;83.80;;;;;;4139299;28;20057;-62
2021/12/13 12:30:02;;;;;;;13.23;8.27;;;15.50;84.90;;;;;;4139294;28;20073;-62
2021/12/13 12:32:27;;;;;;;14.00;9.38;;;15.60;85.40;;;;;;4139111;28;20046;-61
2021/12/13 12:34:54;;;;;;;13.98;9.38;;;15.70;85.00;;;;;;4139998;28;20136;-61
2021/12/13 12:38:07;;;;;;;14.38;9.05;;;15.70;84.30;;;;;;4125106;28;20081;-63
2021/12/13 12:40:36;;;;;;;12.82;8.27;;;15.80;83.30;;;;;;4138989;28;20057;-62
2021/12/13 12:43:01;;;;;;;14.63;10.45;;;15.70;83.10;;;;;;4139622;28;20072;-62
2021/12/13 12:45:29;;;;;;;15.05;9.85;;;15.70;82.90;;;;;;4139203;28;20053;-61
2021/12/13 12:48:10;;;;;;;13.82;9.55;;;15.70;82.70;;;;;;4124972;28;20050;-61
2021/12/13 12:50:37;;;;;;;15.38;9.18;;;15.60;82.70;;;;;;4139749;28;20050;-62
2021/12/13 12:53:02;;;;;;;13.98;9.63;;;15.60;82.90;;;;;;4139529;28;20050;-61